Time,TemperatureF,DewpointF,PressureIn,WindDirection,WindDirectionDegrees,WindSpeedMPH,WindSpeedGustMPH,Humidity,HourlyPrecipIn,Conditions,Clouds,dailyrainin,SoftwareType,DateUTC
2013-12-06 00:02:00,1.0,-2.0,-100.00,WNW,295,2.0,7.0,84,-99.99,,,-99.99,,2013-12-06 06:02:00,
2013-12-06 00:22:00,0.0,-3.0,-100.00,WNW,295,2.0,7.0,84,-99.99,,,-99.99,,2013-12-06 06:22:00,
2013-12-06 00:32:00,0.0,-3.0,-100.00,WNW,295,2.0,7.0,84,-99.99,,,-99.99,,2013-12-06 06:32:00,
2013-12-06 00:42:00,0.0,-3.0,-100.00,WNW,295,2.0,7.0,84,-99.99,,,-99.99,,2013-12-06 06:42:00,
2013-12-06 00:52:00,0.0,-3.0,-100.00,WNW,295,2.0,7.0,84,-99.99,,,-99.99,,2013-12-06 06:52:00,
2013-12-06 01:02:00,0.0,-3.0,-100.00,WNW,295,2.0,7.0,84,-99.99,,,-99.99,,2013-12-06 07:02:00,
2013-12-06 01:22:00,-1.0,-4.0,-100.00,WNW,285,2.0,7.0,85,-99.99,,,-99.99,,2013-12-06 07:22:00,
2013-12-06 01:32:00,-1.0,-4.0,-100.00,WNW,285,2.0,7.0,85,-99.99,,,-99.99,,2013-12-06 07:32:00,
2013-12-06 01:42:00,-1.0,-4.0,-100.00,WNW,285,2.0,7.0,85,-99.99,,,-99.99,,2013-12-06 07:42:00,
2013-12-06 01:52:00,-1.0,-4.0,-100.00,WNW,285,2.0,7.0,85,-99.99,,,-99.99,,2013-12-06 07:52:00,
2013-12-06 02:02:00,-1.0,-4.0,-100.00,WNW,285,2.0,7.0,85,-99.99,,,-99.99,,2013-12-06 08:02:00,
2013-12-06 02:22:00,-2.0,-6.0,-100.00,WNW,290,3.0,9.0,85,-99.99,,,-99.99,,2013-12-06 08:22:00,
2013-12-06 02:32:00,-2.0,-6.0,-100.00,WNW,290,3.0,9.0,85,-99.99,,,-99.99,,2013-12-06 08:32:00,
2013-12-06 02:42:00,-2.0,-6.0,-100.00,WNW,290,3.0,9.0,85,-99.99,,,-99.99,,2013-12-06 08:42:00,
2013-12-06 02:52:00,-2.0,-6.0,-100.00,WNW,290,3.0,9.0,85,-99.99,,,-99.99,,2013-12-06 08:52:00,
2013-12-06 03:02:00,-2.0,-6.0,-100.00,WNW,290,3.0,9.0,85,-99.99,,,-99.99,,2013-12-06 09:02:00,
2013-12-06 03:03:00,-4.0,-7.0,-100.00,West,265,1.0,7.0,85,-99.99,,,-99.99,,2013-12-06 09:03:00,
2013-12-06 03:22:00,-4.0,-7.0,-100.00,West,265,1.0,7.0,85,-99.99,,,-99.99,,2013-12-06 09:22:00,
2013-12-06 03:33:00,-4.0,-7.0,-100.00,West,265,1.0,7.0,85,-99.99,,,-99.99,,2013-12-06 09:33:00,
2013-12-06 03:43:00,-4.0,-7.0,-100.00,West,265,1.0,7.0,85,-99.99,,,-99.99,,2013-12-06 09:43:00,
2013-12-06 03:54:00,-4.0,-7.0,-100.00,West,265,1.0,7.0,85,-99.99,,,-99.99,,2013-12-06 09:54:00,
2013-12-06 04:23:00,-5.0,-8.0,-100.00,NW,320,1.0,6.0,86,-99.99,,,-99.99,,2013-12-06 10:23:00,
2013-12-06 04:33:00,-5.0,-8.0,-100.00,NW,320,1.0,6.0,86,-99.99,,,-99.99,,2013-12-06 10:33:00,
2013-12-06 04:43:00,-5.0,-8.0,-100.00,NW,320,1.0,6.0,86,-99.99,,,-99.99,,2013-12-06 10:43:00,
2013-12-06 04:52:00,-5.0,-8.0,-100.00,NW,320,1.0,6.0,86,-99.99,,,-99.99,,2013-12-06 10:52:00,
2013-12-06 05:02:00,-5.0,-8.0,-100.00,NW,320,1.0,6.0,86,-99.99,,,-99.99,,2013-12-06 11:02:00,
2013-12-06 05:22:00,-6.0,-9.0,-100.00,West,265,1.0,5.0,87,-99.99,,,-99.99,,2013-12-06 11:22:00,
2013-12-06 05:33:00,-6.0,-9.0,-100.00,West,265,1.0,5.0,87,-99.99,,,-99.99,,2013-12-06 11:33:00,
2013-12-06 05:42:00,-6.0,-9.0,-100.00,West,265,1.0,5.0,87,-99.99,,,-99.99,,2013-12-06 11:42:00,
2013-12-06 05:53:00,-6.0,-9.0,-100.00,West,265,1.0,5.0,87,-99.99,,,-99.99,,2013-12-06 11:53:00,
2013-12-06 06:02:00,-6.0,-9.0,-100.00,West,265,1.0,5.0,87,-99.99,,,-99.99,,2013-12-06 12:02:00,
2013-12-06 06:22:00,-7.0,-10.0,-100.00,NW,310,2.0,4.0,87,-99.99,,,-99.99,,2013-12-06 12:22:00,
2013-12-06 06:32:00,-7.0,-10.0,-100.00,NW,310,2.0,4.0,87,-99.99,,,-99.99,,2013-12-06 12:32:00,
2013-12-06 06:42:00,-7.0,-10.0,-100.00,NW,310,2.0,4.0,87,-99.99,,,-99.99,,2013-12-06 12:42:00,
2013-12-06 06:52:00,-7.0,-10.0,-100.00,NW,310,2.0,4.0,87,-99.99,,,-99.99,,2013-12-06 12:52:00,
2013-12-06 07:01:00,-7.0,-10.0,-100.00,NW,310,2.0,4.0,87,-99.99,,,-99.99,,2013-12-06 13:01:00,
2013-12-06 07:02:00,-8.0,-10.0,-100.00,WNW,290,1.0,4.0,87,-99.99,,,-99.99,,2013-12-06 13:02:00,
2013-12-06 07:22:00,-8.0,-10.0,-100.00,WNW,290,1.0,4.0,87,-99.99,,,-99.99,,2013-12-06 13:22:00,
2013-12-06 07:32:00,-8.0,-10.0,-100.00,WNW,290,1.0,4.0,87,-99.99,,,-99.99,,2013-12-06 13:32:00,
2013-12-06 07:42:00,-8.0,-10.0,-100.00,WNW,290,1.0,4.0,87,-99.99,,,-99.99,,2013-12-06 13:42:00,
2013-12-06 07:52:00,-8.0,-10.0,-100.00,WNW,290,1.0,4.0,87,-99.99,,,-99.99,,2013-12-06 13:52:00,
2013-12-06 08:22:00,-8.0,-11.0,-100.00,WNW,300,1.0,2.0,87,-99.99,,,-99.99,,2013-12-06 14:22:00,
2013-12-06 08:32:00,-8.0,-11.0,-100.00,WNW,300,1.0,2.0,87,-99.99,,,-99.99,,2013-12-06 14:32:00,
2013-12-06 08:42:00,-8.0,-11.0,-100.00,WNW,300,1.0,2.0,87,-99.99,,,-99.99,,2013-12-06 14:42:00,
2013-12-06 08:53:00,-8.0,-11.0,-100.00,WNW,300,1.0,2.0,87,-99.99,,,-99.99,,2013-12-06 14:53:00,
2013-12-06 09:02:00,-8.0,-11.0,-100.00,WNW,300,1.0,2.0,87,-99.99,,,-99.99,,2013-12-06 15:02:00,
2013-12-06 10:24:00,-2.0,-7.0,-100.00,WNW,295,2.0,6.0,81,-99.99,,,-99.99,,2013-12-06 16:24:00,
2013-12-06 10:34:00,-2.0,-7.0,-100.00,WNW,295,2.0,6.0,81,-99.99,,,-99.99,,2013-12-06 16:34:00,
2013-12-06 10:43:00,-2.0,-7.0,-100.00,WNW,295,2.0,6.0,81,-99.99,,,-99.99,,2013-12-06 16:43:00,
2013-12-06 10:53:00,-2.0,-7.0,-100.00,WNW,295,2.0,6.0,81,-99.99,,,-99.99,,2013-12-06 16:53:00,
2013-12-06 11:02:00,-2.0,-7.0,-100.00,WNW,295,2.0,6.0,81,-99.99,,,-99.99,,2013-12-06 17:02:00,
2013-12-06 12:22:00,4.0,-3.0,-100.00,NW,315,1.0,6.0,73,-99.99,,,-99.99,,2013-12-06 18:22:00,
2013-12-06 12:33:00,4.0,-3.0,-100.00,NW,315,1.0,6.0,73,-99.99,,,-99.99,,2013-12-06 18:33:00,
2013-12-06 12:42:00,4.0,-3.0,-100.00,NW,315,1.0,6.0,73,-99.99,,,-99.99,,2013-12-06 18:42:00,
2013-12-06 12:52:00,4.0,-3.0,-100.00,NW,315,1.0,6.0,73,-99.99,,,-99.99,,2013-12-06 18:52:00,
2013-12-06 13:02:00,4.0,-3.0,-100.00,NW,315,1.0,6.0,73,-99.99,,,-99.99,,2013-12-06 19:02:00,
2013-12-06 13:22:00,7.0,-1.0,-100.00,West,265,2.0,6.0,71,-99.99,,,-99.99,,2013-12-06 19:22:00,
2013-12-06 13:32:00,7.0,-1.0,-100.00,West,265,2.0,6.0,71,-99.99,,,-99.99,,2013-12-06 19:32:00,
2013-12-06 13:42:00,7.0,-1.0,-100.00,West,265,2.0,6.0,71,-99.99,,,-99.99,,2013-12-06 19:42:00,
2013-12-06 13:52:00,7.0,-1.0,-100.00,West,265,2.0,6.0,71,-99.99,,,-99.99,,2013-12-06 19:52:00,
2013-12-06 14:02:00,7.0,-1.0,-100.00,West,265,2.0,6.0,71,-99.99,,,-99.99,,2013-12-06 20:02:00,
2013-12-06 14:42:00,8.0,0.0,-100.00,West,275,2.0,6.0,72,-99.99,,,-99.99,,2013-12-06 20:42:00,
2013-12-06 14:52:00,8.0,0.0,-100.00,West,275,2.0,6.0,72,-99.99,,,-99.99,,2013-12-06 20:52:00,
2013-12-06 15:02:00,8.0,0.0,-100.00,West,275,2.0,6.0,72,-99.99,,,-99.99,,2013-12-06 21:02:00,
2013-12-06 17:22:00,2.0,-2.0,-100.00,WNW,300,1.0,5.0,83,-99.99,,,-99.99,,2013-12-06 23:22:00,
2013-12-06 17:33:00,2.0,-2.0,-100.00,WNW,300,1.0,5.0,83,-99.99,,,-99.99,,2013-12-06 23:33:00,
2013-12-06 17:42:00,2.0,-2.0,-100.00,WNW,300,1.0,5.0,83,-99.99,,,-99.99,,2013-12-06 23:42:00,
2013-12-06 17:52:00,2.0,-2.0,-100.00,WNW,300,1.0,5.0,83,-99.99,,,-99.99,,2013-12-06 23:52:00,
2013-12-06 18:02:00,2.0,-2.0,-100.00,WNW,300,1.0,5.0,83,-99.99,,,-99.99,,2013-12-07 00:02:00,
2013-12-06 18:22:00,0.0,-3.0,-100.00,NNW,330,2.0,5.0,85,-99.99,,,-99.99,,2013-12-07 00:22:00,
2013-12-06 18:32:00,0.0,-3.0,-100.00,NNW,330,2.0,5.0,85,-99.99,,,-99.99,,2013-12-07 00:32:00,
2013-12-06 18:42:00,0.0,-3.0,-100.00,NNW,330,2.0,5.0,85,-99.99,,,-99.99,,2013-12-07 00:42:00,
2013-12-06 18:52:00,0.0,-3.0,-100.00,NNW,330,2.0,5.0,85,-99.99,,,-99.99,,2013-12-07 00:52:00,
2013-12-06 19:02:00,0.0,-3.0,-100.00,NNW,330,2.0,5.0,85,-99.99,,,-99.99,,2013-12-07 01:02:00,
2013-12-06 19:22:00,-1.0,-4.0,-100.00,WNW,295,2.0,7.0,85,-99.99,,,-99.99,,2013-12-07 01:22:00,
2013-12-06 19:32:00,-1.0,-4.0,-100.00,WNW,295,2.0,7.0,85,-99.99,,,-99.99,,2013-12-07 01:32:00,
2013-12-06 19:42:00,-1.0,-4.0,-100.00,WNW,295,2.0,7.0,85,-99.99,,,-99.99,,2013-12-07 01:42:00,
2013-12-06 19:52:00,-1.0,-4.0,-100.00,WNW,295,2.0,7.0,85,-99.99,,,-99.99,,2013-12-07 01:52:00,
2013-12-06 20:01:00,-1.0,-4.0,-100.00,WNW,295,2.0,7.0,85,-99.99,,,-99.99,,2013-12-07 02:01:00,
2013-12-06 20:22:00,-1.0,-5.0,-100.00,NW,320,2.0,5.0,85,-99.99,,,-99.99,,2013-12-07 02:22:00,
2013-12-06 20:32:00,-1.0,-5.0,-100.00,NW,320,2.0,5.0,85,-99.99,,,-99.99,,2013-12-07 02:32:00,
2013-12-06 20:42:00,-1.0,-5.0,-100.00,NW,320,2.0,5.0,85,-99.99,,,-99.99,,2013-12-07 02:42:00,
2013-12-06 20:52:00,-1.0,-5.0,-100.00,NW,320,2.0,5.0,85,-99.99,,,-99.99,,2013-12-07 02:52:00,
2013-12-06 21:02:00,-1.0,-5.0,-100.00,NW,320,2.0,5.0,85,-99.99,,,-99.99,,2013-12-07 03:02:00,
2013-12-06 21:03:00,-2.0,-5.0,-100.00,WNW,300,3.0,6.0,85,-99.99,,,-99.99,,2013-12-07 03:03:00,
2013-12-06 21:22:00,-2.0,-5.0,-100.00,WNW,300,3.0,6.0,85,-99.99,,,-99.99,,2013-12-07 03:22:00,
2013-12-06 21:33:00,-2.0,-5.0,-100.00,WNW,300,3.0,6.0,85,-99.99,,,-99.99,,2013-12-07 03:33:00,
2013-12-06 21:43:00,-2.0,-5.0,-100.00,WNW,300,3.0,6.0,85,-99.99,,,-99.99,,2013-12-07 03:43:00,
2013-12-06 21:53:00,-2.0,-5.0,-100.00,WNW,300,3.0,6.0,85,-99.99,,,-99.99,,2013-12-07 03:53:00,
2013-12-06 22:02:00,-2.0,-6.0,-100.00,West,280,1.0,4.0,85,-99.99,,,-99.99,,2013-12-07 04:02:00,
2013-12-06 22:23:00,-2.0,-6.0,-100.00,West,280,1.0,4.0,85,-99.99,,,-99.99,,2013-12-07 04:23:00,
2013-12-06 22:33:00,-2.0,-6.0,-100.00,West,280,1.0,4.0,85,-99.99,,,-99.99,,2013-12-07 04:33:00,
2013-12-06 22:43:00,-2.0,-6.0,-100.00,West,280,1.0,4.0,85,-99.99,,,-99.99,,2013-12-07 04:43:00,
2013-12-06 22:53:00,-2.0,-6.0,-100.00,West,280,1.0,4.0,85,-99.99,,,-99.99,,2013-12-07 04:53:00,
2013-12-06 23:43:00,-3.0,-6.0,-100.00,West,280,1.0,4.0,85,-99.99,,,-99.99,,2013-12-07 05:43:00,
2013-12-06 23:53:00,-3.0,-6.0,-100.00,West,280,1.0,4.0,85,-99.99,,,-99.99,,2013-12-07 05:53:00,